createdAt,value
2022-10-01T00:02:06.002Z,7.32
2022-10-01T00:04:36.213Z,6.53
2022-10-01T00:07:07.206Z,7.13
2022-10-01T00:09:36.555Z,7.82
2022-10-01T00:12:04.293Z,6.50
2022-10-01T00:14:31.565Z,8.40
2022-10-01T00:17:01.183Z,7.05
2022-10-01T00:19:31.470Z,8.25
2022-10-01T00:21:58.683Z,7.13
2022-10-01T00:24:30.573Z,9.40
2022-10-01T00:27:00.484Z,6.28
2022-10-01T00:29:31.803Z,6.63
2022-10-01T00:32:02.080Z,5.53
2022-10-01T00:34:29.365Z,6.47
2022-10-01T00:36:56.693Z,7.57
2022-10-01T00:39:23.977Z,5.30
2022-10-01T00:41:52.419Z,6.90
2022-10-01T00:44:36.393Z,6.80
2022-10-01T00:47:28.717Z,6.95
2022-10-01T00:50:07.068Z,5.35
2022-10-01T00:52:39.873Z,6.80
2022-10-01T00:55:14.846Z,5.07
2022-10-01T00:57:47.885Z,5.32
2022-10-01T01:00:18.073Z,6.22
2022-10-01T01:02:47.601Z,5.15
2022-10-01T01:05:14.911Z,5.57
2022-10-01T01:07:50.427Z,3.70
2022-10-01T01:10:51.430Z,4.97
2022-10-01T01:13:50.239Z,6.45
2022-10-01T01:16:32.766Z,3.45
2022-10-01T01:19:12.773Z,5.68
2022-10-01T01:21:44.717Z,3.83
2022-10-01T01:24:42.674Z,4.82
2022-10-01T01:27:31.354Z,3.85
2022-10-01T01:30:08.842Z,4.82
2022-10-01T01:33:03.284Z,8.05
2022-10-01T01:35:41.095Z,3.42
2022-10-01T01:38:14.327Z,3.75
2022-10-01T01:40:51.616Z,3.70
2022-10-01T01:43:45.309Z,4.03
2022-10-01T01:46:17.757Z,5.45
2022-10-01T01:48:53.304Z,2.95
2022-10-01T01:51:39.487Z,4.80
2022-10-01T01:54:12.467Z,2.42
2022-10-01T01:56:39.844Z,3.40
2022-10-01T01:59:08.546Z,3.45
2022-10-01T02:01:43.820Z,2.88
2022-10-01T02:04:24.463Z,3.95
2022-10-01T02:07:06.720Z,3.08
2022-10-01T02:09:51.183Z,1.58
2022-10-01T02:12:39.545Z,4.35
2022-10-01T02:15:12.807Z,1.73
2022-10-01T02:17:49.986Z,3.30
2022-10-01T02:20:41.969Z,1.88
2022-10-01T02:23:13.521Z,1.42
2022-10-01T02:25:52.392Z,1.20
2022-10-01T02:28:25.246Z,1.33
2022-10-01T02:30:56.055Z,1.50
2022-10-01T02:33:31.453Z,0.80
2022-10-01T02:36:01.179Z,1.40
2022-10-01T02:38:29.276Z,3.08
2022-10-01T02:41:00.929Z,1.80
2022-10-01T02:43:42.760Z,0.73
2022-10-01T02:46:21.780Z,0.47
2022-10-01T02:48:53.470Z,0.68
2022-10-01T02:51:40.944Z,1.17
2022-10-01T02:54:14.979Z,1.13
2022-10-01T02:57:01.379Z,1.00
2022-10-01T02:59:29.176Z,1.23
2022-10-01T03:01:56.465Z,1.00
2022-10-01T03:04:23.838Z,2.08
2022-10-01T03:06:51.113Z,1.00
2022-10-01T03:09:18.337Z,0.73
2022-10-01T03:11:45.880Z,0.70
2022-10-01T03:14:15.483Z,0.68
2022-10-01T03:16:43.110Z,0.57
2022-10-01T03:19:12.653Z,0.77
2022-10-01T03:21:39.833Z,0.93
2022-10-01T03:24:07.136Z,1.92
2022-10-01T03:26:34.459Z,0.35
2022-10-01T03:29:04.465Z,1.77
2022-10-01T03:31:32.252Z,0.47
2022-10-01T03:34:00.384Z,0.88
2022-10-01T03:36:27.991Z,0.68
2022-10-01T03:38:55.414Z,0.98
2022-10-01T03:41:22.663Z,1.10
2022-10-01T03:43:49.947Z,1.33
2022-10-01T03:46:20.070Z,1.73
2022-10-01T03:48:48.042Z,1.30
2022-10-01T03:51:19.691Z,0.88
2022-10-01T03:53:48.179Z,0.55
2022-10-01T03:56:16.885Z,0.85
2022-10-01T03:58:44.148Z,0.95
2022-10-01T04:01:11.378Z,0.68
2022-10-01T04:03:41.495Z,1.98
2022-10-01T04:06:08.699Z,1.55
2022-10-01T04:08:35.939Z,1.10
2022-10-01T04:11:03.309Z,1.40
2022-10-01T04:13:31.122Z,0.98
2022-10-01T04:15:58.899Z,1.27
2022-10-01T04:18:26.195Z,4.90
2022-10-01T04:20:55.556Z,1.92
2022-10-01T04:23:22.752Z,1.83
2022-10-01T04:25:53.166Z,1.05
2022-10-01T04:28:20.458Z,0.88
2022-10-01T04:31:07.688Z,1.70
2022-10-01T04:33:35.362Z,1.25
2022-10-01T04:36:02.607Z,1.48
2022-10-01T04:38:29.807Z,1.48
2022-10-01T04:40:57.449Z,1.27
2022-10-01T04:43:26.983Z,1.10
2022-10-01T04:45:54.206Z,1.17
2022-10-01T04:48:21.669Z,1.52
2022-10-01T04:50:48.955Z,0.88
2022-10-01T04:53:20.802Z,1.25
2022-10-01T04:55:50.452Z,1.45
2022-10-01T04:58:18.647Z,1.38
2022-10-01T05:00:48.672Z,1.38
2022-10-01T05:03:18.626Z,1.60
2022-10-01T05:05:45.851Z,1.75
2022-10-01T05:08:13.553Z,1.90
2022-10-01T05:10:41.360Z,2.92
2022-10-01T05:13:11.556Z,1.13
2022-10-01T05:15:41.368Z,2.35
2022-10-01T05:18:09.004Z,1.23
2022-10-01T05:20:37.778Z,1.58
2022-10-01T05:23:07.164Z,2.03
2022-10-01T05:25:36.952Z,1.20
2022-10-01T05:28:05.485Z,3.70
2022-10-01T05:30:34.521Z,4.07
2022-10-01T05:33:03.787Z,2.15
2022-10-01T05:35:31.546Z,2.67
2022-10-01T05:38:01.030Z,3.53
2022-10-01T05:40:29.416Z,3.35
2022-10-01T05:42:58.478Z,2.75
2022-10-01T05:45:30.089Z,2.22
2022-10-01T05:48:01.046Z,3.00
2022-10-01T05:50:31.306Z,1.98
2022-10-01T05:52:59.362Z,3.67
2022-10-01T05:55:27.564Z,3.17
2022-10-01T05:58:00.001Z,2.03
2022-10-01T06:03:00.913Z,1.77
2022-10-01T06:05:30.313Z,3.03
2022-10-01T06:07:57.982Z,1.98
2022-10-01T06:10:25.671Z,2.42
2022-10-01T06:12:58.120Z,2.63
2022-10-01T06:15:25.778Z,1.23
2022-10-01T06:17:53.014Z,1.70
2022-10-01T06:20:20.613Z,3.08
2022-10-01T06:22:55.880Z,2.17
2022-10-01T06:25:23.749Z,2.13
2022-10-01T06:27:59.748Z,2.47
2022-10-01T06:30:30.175Z,2.97
2022-10-01T06:33:15.629Z,2.42
2022-10-01T06:35:46.043Z,2.78
2022-10-01T06:38:14.469Z,2.05
2022-10-01T06:40:44.692Z,3.90
2022-10-01T06:43:11.905Z,3.70
2022-10-01T06:45:45.022Z,2.38
2022-10-01T06:48:15.027Z,6.38
2022-10-01T06:50:44.549Z,3.60
2022-10-01T06:53:14.028Z,4.90
2022-10-01T06:55:41.350Z,3.03
2022-10-01T06:58:10.554Z,5.00
2022-10-01T07:00:40.458Z,2.60
2022-10-01T07:03:11.522Z,3.78
2022-10-01T07:05:39.578Z,2.33
2022-10-01T07:08:10.439Z,3.10
2022-10-01T07:10:38.088Z,4.05
2022-10-01T07:13:12.897Z,3.20
2022-10-01T07:15:40.680Z,3.38
2022-10-01T07:18:09.614Z,5.45
2022-10-01T07:20:39.980Z,5.20
2022-10-01T07:23:13.119Z,4.18
2022-10-01T07:25:42.120Z,4.55
2022-10-01T07:28:16.638Z,5.15
2022-10-01T07:30:57.084Z,6.10
2022-10-01T07:33:24.437Z,6.00
2022-10-01T07:35:54.674Z,5.85
2022-10-01T07:38:24.610Z,5.57
2022-10-01T07:40:58.427Z,5.55
2022-10-01T07:43:26.353Z,7.07
2022-10-01T07:45:55.190Z,6.35
2022-10-01T07:48:22.618Z,7.15
2022-10-01T07:50:50.518Z,10.75
2022-10-01T07:53:17.962Z,6.22
2022-10-01T07:55:45.991Z,7.30
2022-10-01T07:58:13.794Z,10.80
2022-10-01T08:00:41.590Z,5.53
2022-10-01T08:03:12.107Z,7.00
2022-10-01T08:05:42.054Z,9.30
2022-10-01T08:08:11.975Z,7.45
2022-10-01T08:10:42.146Z,5.65
2022-10-01T08:13:18.105Z,8.57
2022-10-01T08:15:50.484Z,6.30
2022-10-01T08:18:17.740Z,8.55
2022-10-01T08:20:45.574Z,7.65
2022-10-01T08:23:15.243Z,7.78
2022-10-01T08:25:45.762Z,6.78
2022-10-01T08:28:13.601Z,6.28
2022-10-01T08:30:42.689Z,11.00
2022-10-01T08:33:14.307Z,8.13
2022-10-01T08:35:44.432Z,7.45
2022-10-01T08:38:13.903Z,10.98
2022-10-01T08:40:50.365Z,10.02
2022-10-01T08:43:29.476Z,6.10
2022-10-01T08:46:01.210Z,8.77
2022-10-01T08:48:57.380Z,12.23
2022-10-01T08:51:45.909Z,9.05
2022-10-01T08:54:22.149Z,10.70
2022-10-01T08:56:50.144Z,8.07
2022-10-01T08:59:47.139Z,8.80
2022-10-01T09:02:21.500Z,6.55
2022-10-01T09:05:01.745Z,13.75
2022-10-01T09:07:49.918Z,8.30
2022-10-01T09:10:33.981Z,12.35
2022-10-01T09:13:26.096Z,9.80
2022-10-01T09:16:18.311Z,11.38
2022-10-01T09:19:21.126Z,15.30
2022-10-01T09:22:03.468Z,15.23
2022-10-01T09:24:54.000Z,16.52
2022-10-01T09:27:28.206Z,13.50
2022-10-01T09:30:22.437Z,4.80
2022-10-01T09:32:55.548Z,8.23
2022-10-01T09:35:44.153Z,8.15
2022-10-01T09:38:23.565Z,5.25
2022-10-01T09:40:58.580Z,8.88
2022-10-01T09:43:31.063Z,9.38
2022-10-01T09:46:01.364Z,9.88
2022-10-01T09:48:39.681Z,7.80
2022-10-01T09:51:48.136Z,14.77
2022-10-01T09:54:23.712Z,7.15
2022-10-01T09:57:15.222Z,7.68
2022-10-01T09:59:54.273Z,10.07
2022-10-01T10:02:22.082Z,10.60
2022-10-01T10:05:10.177Z,9.57
2022-10-01T10:07:42.227Z,7.68
2022-10-01T10:10:25.327Z,14.07
2022-10-01T10:15:26.395Z,8.20
2022-10-01T10:17:55.728Z,5.00
2022-10-01T10:20:25.758Z,6.72
2022-10-01T10:22:53.599Z,5.95
2022-10-01T10:25:25.251Z,7.40
2022-10-01T10:27:55.946Z,8.32
2022-10-01T10:30:26.757Z,10.27
2022-10-01T10:33:03.609Z,5.85
2022-10-01T10:35:33.529Z,6.20
2022-10-01T10:38:01.457Z,9.57
2022-10-01T10:40:45.439Z,9.80
2022-10-01T10:43:26.225Z,5.20
2022-10-01T10:45:56.410Z,6.07
2022-10-01T10:48:31.503Z,8.35
2022-10-01T10:51:01.905Z,5.15
2022-10-01T10:53:39.124Z,6.70
2022-10-01T10:56:15.109Z,6.13
2022-10-01T10:58:45.099Z,7.93
2022-10-01T11:01:20.192Z,7.43
2022-10-01T11:03:55.292Z,7.03
2022-10-01T11:06:22.940Z,4.70
2022-10-01T11:09:04.922Z,6.70
2022-10-01T11:12:00.124Z,5.47
2022-10-01T11:14:50.432Z,4.93
2022-10-01T11:17:39.136Z,5.78
2022-10-01T11:20:33.565Z,5.13
2022-10-01T11:23:07.931Z,9.77
2022-10-01T11:25:42.005Z,9.95
2022-10-01T11:28:33.653Z,7.22
2022-10-01T11:31:40.372Z,5.65
2022-10-01T11:34:55.032Z,7.30
2022-10-01T11:37:44.014Z,6.70
2022-10-01T11:40:29.019Z,8.55
2022-10-01T11:43:02.973Z,8.40
2022-10-01T11:45:42.853Z,10.70
2022-10-01T11:48:29.835Z,5.78
2022-10-01T11:51:08.394Z,8.45
2022-10-01T11:53:45.469Z,7.25
2022-10-01T11:56:45.440Z,7.10
2022-10-01T11:59:20.264Z,10.93
2022-10-01T12:02:32.664Z,7.03
2022-10-01T12:05:18.587Z,9.82
2022-10-01T12:08:11.824Z,6.50
2022-10-01T12:10:50.868Z,4.50
2022-10-01T12:13:35.413Z,7.20
2022-10-01T12:16:21.766Z,6.32
2022-10-01T12:18:56.097Z,7.75
2022-10-01T12:21:54.450Z,4.90
2022-10-01T12:24:34.525Z,7.40
2022-10-01T12:27:39.877Z,6.65
2022-10-01T12:30:16.052Z,4.85
2022-10-01T12:33:15.552Z,8.45
2022-10-01T12:35:59.709Z,3.70
2022-10-01T12:38:58.018Z,5.40
2022-10-01T12:41:55.561Z,7.22
2022-10-01T12:44:40.610Z,3.10
2022-10-01T12:47:23.790Z,6.15
2022-10-01T12:50:12.166Z,7.15
2022-10-01T12:53:05.966Z,6.45
2022-10-01T12:55:54.898Z,6.53
2022-10-01T12:58:47.710Z,5.75
2022-10-01T13:01:21.179Z,4.88
2022-10-01T13:04:25.854Z,6.53
2022-10-01T13:07:29.437Z,7.60
2022-10-01T13:10:42.305Z,5.10
2022-10-01T13:13:22.196Z,7.80
2022-10-01T13:16:05.458Z,4.10
2022-10-01T13:18:43.309Z,7.28
2022-10-01T13:21:32.286Z,4.47
2022-10-01T13:24:14.559Z,8.02
2022-10-01T13:27:02.896Z,6.60
2022-10-01T13:29:44.859Z,7.22
2022-10-01T13:32:30.818Z,5.47
2022-10-01T13:35:01.072Z,4.05
2022-10-01T13:37:34.919Z,9.10
2022-10-01T13:40:03.832Z,6.25
2022-10-01T13:42:44.359Z,5.20
2022-10-01T13:45:30.462Z,8.63
2022-10-01T13:48:31.720Z,7.78
2022-10-01T13:51:09.203Z,8.95
2022-10-01T13:54:00.571Z,7.88
2022-10-01T13:56:36.249Z,3.38
2022-10-01T13:59:19.386Z,7.93
2022-10-01T14:01:46.671Z,4.15
2022-10-01T14:04:38.011Z,4.65
2022-10-01T14:07:16.380Z,5.30
2022-10-01T14:09:50.965Z,7.80
2022-10-01T14:12:41.980Z,8.23
2022-10-01T14:15:40.014Z,7.97
2022-10-01T14:18:19.084Z,3.30
2022-10-01T14:21:14.258Z,8.63
2022-10-01T14:24:02.079Z,5.53
2022-10-01T14:26:38.440Z,9.45
2022-10-01T14:29:09.273Z,7.45
2022-10-01T14:32:14.498Z,5.90
2022-10-01T14:35:07.386Z,10.65
2022-10-01T14:37:39.349Z,6.32
2022-10-01T14:40:24.055Z,5.13
2022-10-01T14:43:04.983Z,6.32
2022-10-01T14:45:34.730Z,2.78
2022-10-01T14:48:06.373Z,5.00
2022-10-01T14:50:39.606Z,5.85
2022-10-01T14:53:08.123Z,5.85
2022-10-01T14:55:38.963Z,2.78
2022-10-01T14:58:07.208Z,6.70
2022-10-01T15:00:34.816Z,6.45
2022-10-01T15:03:08.554Z,5.70
2022-10-01T15:05:39.731Z,5.07
2022-10-01T15:08:17.743Z,6.03
2022-10-01T15:10:50.361Z,9.40
2022-10-01T15:13:24.382Z,11.67
2022-10-01T15:15:52.033Z,5.20
2022-10-01T15:18:20.814Z,9.95
2022-10-01T15:21:07.484Z,6.93
2022-10-01T15:23:38.721Z,6.60
2022-10-01T15:26:14.090Z,2.92
2022-10-01T15:28:41.362Z,5.25
2022-10-01T15:31:09.184Z,5.22
2022-10-01T15:33:40.419Z,5.10
2022-10-01T15:36:18.906Z,2.47
2022-10-01T15:38:47.803Z,7.53
2022-10-01T15:41:31.948Z,4.00
2022-10-01T15:44:03.594Z,4.97
2022-10-01T15:46:34.876Z,5.45
2022-10-01T15:49:14.608Z,5.57
2022-10-01T15:52:14.431Z,7.28
2022-10-01T15:54:46.019Z,6.05
2022-10-01T15:57:20.155Z,4.65
2022-10-01T15:59:51.878Z,6.68
2022-10-01T16:02:24.452Z,6.43
2022-10-01T16:04:56.209Z,9.13
2022-10-01T16:07:32.108Z,5.35
2022-10-01T16:10:12.074Z,6.20
2022-10-01T16:12:42.361Z,2.28
2022-10-01T16:15:28.508Z,6.40
2022-10-01T16:17:59.711Z,5.80
2022-10-01T16:20:39.917Z,7.93
2022-10-01T16:23:43.188Z,4.57
2022-10-01T16:26:44.307Z,5.50
2022-10-01T16:29:24.034Z,3.97
2022-10-01T16:31:52.191Z,5.55
2022-10-01T16:34:20.824Z,7.50
2022-10-01T16:36:50.764Z,9.55
2022-10-01T16:39:18.554Z,6.20
2022-10-01T16:42:01.474Z,3.47
2022-10-01T16:44:39.662Z,6.10
2022-10-01T16:47:07.409Z,5.53
2022-10-01T16:49:37.465Z,6.43
2022-10-01T16:52:05.190Z,4.47
2022-10-01T16:54:35.168Z,4.63
2022-10-01T16:57:02.418Z,11.02
2022-10-01T16:59:33.883Z,5.90
2022-10-01T17:02:04.059Z,4.70
2022-10-01T17:04:34.101Z,7.25
2022-10-01T17:07:01.711Z,3.50
2022-10-01T17:09:29.023Z,8.07
2022-10-01T17:11:56.221Z,5.80
2022-10-01T17:14:25.936Z,4.82
2022-10-01T17:16:53.557Z,4.30
2022-10-01T17:19:21.882Z,7.10
2022-10-01T17:21:49.174Z,5.70
2022-10-01T17:24:17.081Z,7.07
2022-10-01T17:26:45.485Z,9.32
2022-10-01T17:29:14.997Z,5.60
2022-10-01T17:31:46.615Z,5.78
2022-10-01T17:34:14.017Z,6.28
2022-10-01T17:36:41.258Z,4.28
2022-10-01T17:39:08.627Z,3.63
2022-10-01T17:41:35.929Z,5.07
2022-10-01T17:44:05.725Z,6.38
2022-10-01T17:46:35.309Z,5.90
2022-10-01T17:49:02.842Z,5.68
2022-10-01T17:51:30.117Z,2.47
2022-10-01T17:54:01.917Z,5.57
2022-10-01T17:56:32.609Z,9.30
2022-10-01T17:59:02.573Z,4.15
2022-10-01T18:01:32.551Z,3.83
2022-10-01T18:04:00.775Z,4.75
2022-10-01T18:06:30.959Z,9.88
2022-10-01T18:08:58.275Z,10.93
2022-10-01T18:11:27.702Z,12.65
2022-10-01T18:13:55.220Z,13.52
2022-10-01T18:16:23.507Z,10.18
2022-10-01T18:21:48.636Z,4.15
2022-10-01T18:24:16.157Z,7.57
2022-10-01T18:26:46.324Z,7.25
2022-10-01T18:29:20.323Z,6.45
2022-10-01T18:31:52.032Z,5.30
2022-10-01T18:34:31.133Z,4.45
2022-10-01T18:37:07.525Z,5.28
2022-10-01T18:39:45.159Z,6.03
2022-10-01T18:42:36.040Z,6.05
2022-10-01T18:45:15.074Z,5.78
2022-10-01T18:48:04.171Z,8.98
2022-10-01T18:50:40.345Z,13.70
2022-10-01T18:53:19.358Z,6.80
2022-10-01T18:55:55.226Z,11.13
2022-10-01T18:58:34.406Z,8.77
2022-10-01T19:01:13.332Z,12.00
2022-10-01T19:04:14.467Z,9.05
2022-10-01T19:06:44.586Z,9.82
2022-10-01T19:09:22.166Z,13.10
2022-10-01T19:12:30.497Z,9.20
2022-10-01T19:15:21.498Z,7.80
2022-10-01T19:18:16.717Z,8.98
2022-10-01T19:20:49.486Z,7.88
2022-10-01T19:23:41.956Z,7.47
2022-10-01T19:26:16.474Z,6.82
2022-10-01T19:29:25.153Z,10.32
2022-10-01T19:32:00.576Z,11.57
2022-10-01T19:34:39.053Z,8.55
2022-10-01T19:37:33.520Z,7.95
2022-10-01T19:40:26.930Z,8.00
2022-10-01T19:43:23.542Z,12.35
2022-10-01T19:46:00.893Z,10.20
2022-10-01T19:49:09.336Z,9.43
2022-10-01T19:52:04.888Z,10.05
2022-10-01T19:54:39.064Z,12.52
2022-10-01T19:57:30.616Z,9.02
2022-10-01T20:00:10.465Z,9.32
2022-10-01T20:02:58.089Z,15.52
2022-10-01T20:05:29.658Z,10.32
2022-10-01T20:08:24.952Z,13.48
2022-10-01T20:10:55.850Z,10.13
2022-10-01T20:13:28.902Z,10.20
2022-10-01T20:16:20.395Z,8.13
2022-10-01T20:18:57.067Z,8.88
2022-10-01T20:21:36.179Z,9.80
2022-10-01T20:24:29.016Z,9.50
2022-10-01T20:27:21.810Z,8.45
2022-10-01T20:30:14.398Z,13.35
2022-10-01T20:33:08.819Z,11.27
2022-10-01T20:36:08.710Z,16.70
2022-10-01T20:39:04.145Z,9.52
2022-10-01T20:41:53.707Z,9.85
2022-10-01T20:44:28.503Z,10.75
2022-10-01T20:47:02.291Z,13.35
2022-10-01T20:49:51.476Z,11.60
2022-10-01T20:52:51.033Z,15.43
2022-10-01T20:55:26.698Z,16.42
2022-10-01T20:57:59.870Z,11.85
2022-10-01T21:00:28.326Z,8.63
2022-10-01T21:03:17.988Z,11.05
2022-10-01T21:05:53.935Z,8.68
2022-10-01T21:08:31.042Z,14.32
2022-10-01T21:11:29.658Z,9.85
2022-10-01T21:14:45.899Z,11.13
2022-10-01T21:17:41.753Z,13.23
2022-10-01T21:20:37.707Z,16.08
2022-10-01T21:23:19.179Z,12.43
2022-10-01T21:26:09.775Z,12.88
2022-10-01T21:29:19.368Z,15.73
2022-10-01T21:32:28.499Z,13.52
2022-10-01T21:35:24.077Z,11.95
2022-10-01T21:38:22.712Z,16.42
2022-10-01T21:40:56.282Z,13.93
2022-10-01T21:43:37.543Z,11.88
2022-10-01T21:46:33.302Z,15.85
2022-10-01T21:49:29.720Z,12.23
2022-10-01T21:52:30.444Z,13.25
2022-10-01T21:55:19.811Z,18.25
2022-10-01T21:58:11.152Z,12.88
2022-10-01T22:00:38.545Z,16.20
2022-10-01T22:03:19.660Z,15.80
2022-10-01T22:06:14.975Z,15.25
2022-10-01T22:09:03.655Z,12.05
2022-10-01T22:11:39.290Z,17.10
2022-10-01T22:14:18.716Z,16.35
2022-10-01T22:16:55.310Z,12.63
2022-10-01T22:19:35.840Z,11.90
2022-10-01T22:22:28.446Z,17.23
2022-10-01T22:24:58.823Z,15.02
2022-10-01T22:27:54.361Z,15.02
2022-10-01T22:30:25.840Z,14.38
2022-10-01T22:33:14.648Z,17.77
2022-10-01T22:36:10.890Z,18.67
2022-10-01T22:38:44.164Z,7.90
2022-10-01T22:41:19.434Z,16.20
2022-10-01T22:43:47.259Z,16.05
2022-10-01T22:46:45.732Z,26.90
2022-10-01T22:49:19.055Z,13.32
2022-10-01T22:52:08.218Z,13.55
2022-10-01T22:54:49.435Z,12.48
2022-10-01T22:57:48.203Z,12.88
2022-10-01T23:00:15.953Z,10.35
2022-10-01T23:02:47.940Z,13.88
2022-10-01T23:05:50.092Z,14.57
2022-10-01T23:08:34.892Z,12.32
2022-10-01T23:11:26.654Z,16.45
2022-10-01T23:14:16.659Z,15.95
2022-10-01T23:16:43.899Z,20.38
2022-10-01T23:19:25.476Z,20.70
2022-10-01T23:22:10.476Z,11.55
2022-10-01T23:24:49.398Z,17.65
2022-10-01T23:27:25.174Z,15.50
2022-10-01T23:29:58.263Z,10.52
2022-10-01T23:32:47.138Z,15.80
2022-10-01T23:35:33.151Z,15.65
2022-10-01T23:38:17.059Z,23.50
2022-10-01T23:40:48.186Z,16.77
2022-10-01T23:43:25.851Z,14.52
2022-10-01T23:46:02.436Z,13.18
2022-10-01T23:48:48.201Z,23.33
2022-10-01T23:51:39.810Z,16.02
2022-10-01T23:54:45.250Z,18.17
2022-10-01T23:57:26.316Z,13.85
